Time;durP1;ratioP1;P1;durP2;ratioP2;P2;SDS_P1;SDS_P2;PMS_P1;PMS_P2;Temp;Humidity;BMP_temperature;BMP_pressure;BME280_temperature;BME280_humidity;BME280_pressure;Samples;Min_cycle;Max_cycle;Signal;HPM_P1;HPM_P2
2021/12/24 00:01:03;;;;;;;9.33;4.80;;;8.20;89.20;;;;;;5041031;28;20207;-88
2021/12/24 00:03:29;;;;;;;5.17;4.67;;;8.20;89.40;;;;;;5045179;28;20238;-89
2021/12/24 00:05:55;;;;;;;5.37;4.87;;;8.30;88.70;;;;;;5046456;28;20201;-89
2021/12/24 00:08:21;;;;;;;5.23;4.63;;;8.60;87.70;;;;;;5043503;28;20208;-88
2021/12/24 00:10:51;;;;;;;5.90;4.77;;;8.70;87.00;;;;;;5041922;28;20226;-89
2021/12/24 00:13:18;;;;;;;6.27;5.67;;;8.80;86.70;;;;;;5044192;28;20192;-88
2021/12/24 00:35:05;;;;;;;6.37;4.97;;;8.60;86.80;;;;;;5044166;28;20235;-89
2021/12/24 00:36:59;;;;;;;6.03;4.53;;;8.60;87.10;;;;;;5047739;28;20219;-89
2021/12/24 00:39:24;;;;;;;5.10;4.60;;;8.70;87.10;;;;;;5055164;28;20200;-89
2021/12/24 00:41:50;;;;;;;8.03;4.70;;;8.60;87.60;;;;;;5062428;28;20181;-88
2021/12/24 00:44:16;;;;;;;5.53;4.57;;;8.70;86.30;;;;;;5038734;28;20201;-88
2021/12/24 00:46:41;;;;;;;4.80;4.33;;;8.80;85.70;;;;;;5064665;28;20204;-87
2021/12/24 00:49:07;;;;;;;5.83;5.00;;;9.00;85.10;;;;;;5071906;28;20200;-88
2021/12/24 00:51:55;;;;;;;5.57;4.93;;;9.00;85.20;;;;;;5048907;28;20311;-87
2021/12/24 00:57:03;;;;;;;5.17;4.67;;;8.80;85.40;;;;;;5044206;28;20250;-87
2021/12/24 00:59:29;;;;;;;7.63;5.10;;;9.00;84.80;;;;;;5047058;28;20189;-87
2021/12/24 01:01:55;;;;;;;5.23;4.73;;;9.00;84.10;;;;;;5030174;28;20228;-89
2021/12/24 01:04:20;;;;;;;7.00;5.60;;;9.00;84.30;;;;;;5046229;28;20308;-89
2021/12/24 01:06:46;;;;;;;5.87;5.10;;;9.00;84.80;;;;;;5043398;28;20247;-89
2021/12/24 01:09:12;;;;;;;7.03;5.80;;;8.90;84.60;;;;;;5046350;28;20207;-89
2021/12/24 01:11:38;;;;;;;6.67;5.93;;;8.80;85.00;;;;;;5029321;28;20242;-89
2021/12/24 01:14:04;;;;;;;6.10;5.50;;;8.70;85.40;;;;;;5043300;28;20200;-89
2021/12/24 01:16:50;;;;;;;6.27;5.67;;;8.60;85.40;;;;;;5042954;28;20176;-89
2021/12/24 01:19:21;;;;;;;5.47;4.97;;;8.60;85.60;;;;;;5033501;28;20195;-89
2021/12/24 01:24:19;;;;;;;7.23;5.73;;;8.60;85.50;;;;;;5043730;28;20322;-89
2021/12/24 01:27:03;;;;;;;6.77;5.90;;;8.50;86.20;;;;;;5050335;28;20220;-86
2021/12/24 01:29:52;;;;;;;7.13;6.13;;;8.50;85.80;;;;;;5043727;28;20231;-89
2021/12/24 01:37:56;;;;;;;6.50;5.73;;;8.30;86.80;;;;;;5044586;28;20218;-88
2021/12/24 01:40:26;;;;;;;6.20;5.17;;;8.40;86.30;;;;;;5050663;28;20208;-89
2021/12/24 01:42:54;;;;;;;6.63;5.67;;;8.40;86.40;;;;;;5045428;28;20176;-87
2021/12/24 01:45:27;;;;;;;6.53;5.93;;;8.40;87.20;;;;;;5045221;28;20227;-87
2021/12/24 01:47:55;;;;;;;8.23;6.37;;;8.30;87.30;;;;;;5046150;28;20208;-87
2021/12/24 01:50:22;;;;;;;6.27;5.53;;;8.30;87.30;;;;;;5044667;28;20204;-87
2021/12/24 01:52:50;;;;;;;7.03;6.00;;;8.40;86.80;;;;;;5039435;28;20206;-87
2021/12/24 01:55:17;;;;;;;6.17;5.57;;;8.40;87.00;;;;;;5045974;28;20176;-87
2021/12/24 01:57:43;;;;;;;7.53;5.57;;;8.40;86.40;;;;;;5043832;28;20583;-87
2021/12/24 02:00:17;;;;;;;7.63;5.70;;;8.50;86.20;;;;;;5045689;28;20192;-87
2021/12/24 02:02:43;;;;;;;6.83;5.90;;;8.60;85.60;;;;;;5046802;28;20199;-87
2021/12/24 02:05:09;;;;;;;6.17;5.30;;;8.60;85.90;;;;;;5051416;28;20192;-88
2021/12/24 02:07:36;;;;;;;6.90;5.80;;;8.60;86.00;;;;;;5052604;28;20223;-89
2021/12/24 02:10:04;;;;;;;7.73;5.90;;;8.60;86.00;;;;;;5055262;28;20199;-88
2021/12/24 02:12:32;;;;;;;7.67;5.20;;;8.60;85.70;;;;;;5032937;28;20201;-88
2021/12/24 02:14:59;;;;;;;8.30;4.90;;;8.60;85.70;;;;;;5054634;28;20206;-88
2021/12/24 02:30:50;;;;;;;5.63;5.13;;;8.70;85.70;;;;;;5049247;28;20725;-88
2021/12/24 02:33:16;;;;;;;7.63;5.27;;;8.70;85.60;;;;;;5047999;28;20230;-88
2021/12/24 02:35:42;;;;;;;5.67;5.17;;;8.60;85.80;;;;;;5054247;28;20579;-88
2021/12/24 02:38:08;;;;;;;6.40;5.77;;;8.60;86.30;;;;;;5034854;28;20229;-89
2021/12/24 02:40:34;;;;;;;6.67;5.93;;;8.60;87.20;;;;;;5042621;28;20598;-88
2021/12/24 02:43:01;;;;;;;6.53;5.00;;;8.50;87.10;;;;;;5045110;28;20191;-88
2021/12/24 02:45:30;;;;;;;8.07;5.57;;;8.50;87.00;;;;;;5049518;28;20196;-88
2021/12/24 02:48:13;;;;;;;6.03;5.43;;;8.60;86.60;;;;;;5046199;28;20270;-88
2021/12/24 02:56:10;;;;;;;6.13;5.13;;;8.60;87.20;;;;;;5075354;28;20275;-88
2021/12/24 02:58:45;;;;;;;5.77;5.13;;;8.50;87.20;;;;;;5052613;28;20267;-87
2021/12/24 03:01:13;;;;;;;5.93;5.03;;;8.60;86.90;;;;;;5063047;28;20244;-88
2021/12/24 03:03:39;;;;;;;7.87;5.50;;;8.60;86.90;;;;;;5063366;28;20399;-88
2021/12/24 03:06:06;;;;;;;5.70;4.87;;;8.40;87.80;;;;;;5047003;28;20197;-88
2021/12/24 03:08:32;;;;;;;6.70;6.00;;;8.50;87.60;;;;;;5048502;28;20215;-88
2021/12/24 03:10:59;;;;;;;6.17;5.53;;;8.50;87.70;;;;;;5040734;28;20244;-88
2021/12/24 03:13:26;;;;;;;6.33;5.40;;;8.40;88.00;;;;;;5046862;28;20191;-88
2021/12/24 03:15:56;;;;;;;6.77;5.90;;;8.40;87.80;;;;;;5030955;28;20235;-88
2021/12/24 03:18:28;;;;;;;7.53;6.17;;;8.50;87.50;;;;;;5040593;28;20208;-88
2021/12/24 03:21:34;;;;;;;6.13;5.40;;;8.50;87.80;;;;;;5044692;28;20207;-88
2021/12/24 03:26:34;;;;;;;6.77;6.07;;;8.50;87.80;;;;;;5042588;28;20191;-87
2021/12/24 03:28:59;;;;;;;5.90;5.30;;;8.50;88.20;;;;;;5025953;28;20197;-86
2021/12/24 03:31:25;;;;;;;7.17;5.87;;;8.50;88.20;;;;;;5026965;28;20223;-87
2021/12/24 03:33:53;;;;;;;6.23;5.63;;;8.30;89.30;;;;;;5028748;28;20184;-87
2021/12/24 03:36:21;;;;;;;6.57;5.60;;;8.40;89.30;;;;;;5042263;28;20188;-87
2021/12/24 03:38:47;;;;;;;6.43;5.70;;;8.40;88.60;;;;;;5045286;28;20213;-87
2021/12/24 03:41:13;;;;;;;6.20;5.60;;;8.40;88.60;;;;;;5044126;28;20212;-87
2021/12/24 03:43:39;;;;;;;7.57;5.73;;;8.40;89.20;;;;;;5044737;28;20196;-87
2021/12/24 03:46:09;;;;;;;6.50;5.50;;;8.40;89.40;;;;;;5048223;28;20184;-86
2021/12/24 03:48:49;;;;;;;6.33;5.13;;;8.30;90.20;;;;;;5048180;28;20217;-87
2021/12/24 03:56:35;;;;;;;6.13;5.53;;;8.30;90.50;;;;;;5042954;28;20192;-87
2021/12/24 03:59:01;;;;;;;6.70;5.13;;;8.30;91.20;;;;;;5050308;28;20917;-87
2021/12/24 04:01:27;;;;;;;6.53;5.87;;;8.20;92.10;;;;;;5048765;28;20212;-86
2021/12/24 04:03:53;;;;;;;6.17;5.20;;;8.10;92.80;;;;;;5057465;28;21092;-87
2021/12/24 04:06:19;;;;;;;5.30;4.80;;;8.20;93.00;;;;;;5066430;28;20201;-87
2021/12/24 04:08:45;;;;;;;6.70;5.20;;;8.10;93.80;;;;;;5065572;28;20804;-86
2021/12/24 04:11:10;;;;;;;6.23;5.27;;;8.10;93.60;;;;;;5041378;28;20260;-87
2021/12/24 04:13:36;;;;;;;7.10;5.93;;;8.10;93.40;;;;;;5043204;28;20205;-87
2021/12/24 04:16:03;;;;;;;5.17;4.67;;;8.20;92.80;;;;;;5047443;28;20617;-87
2021/12/24 04:26:25;;;;;;;5.73;4.90;;;8.20;93.10;;;;;;5041155;28;20200;-87
2021/12/24 04:28:51;;;;;;;6.00;5.40;;;8.30;92.10;;;;;;5045497;28;20196;-87
2021/12/24 04:31:19;;;;;;;5.60;5.10;;;8.20;91.90;;;;;;5032798;28;20287;-88
2021/12/24 04:33:48;;;;;;;6.03;5.43;;;8.30;91.80;;;;;;5047273;28;20275;-87
2021/12/24 04:39:01;;;;;;;6.90;6.10;;;8.30;91.70;;;;;;5041839;28;20702;-87
2021/12/24 05:03:14;;;;;;;5.47;4.97;;;8.30;91.80;;;;;;5045157;28;20203;-87
2021/12/24 05:10:41;;;;;;;5.13;4.63;;;8.20;92.40;;;;;;5066485;28;20231;-87
2021/12/24 05:13:12;;;;;;;8.10;5.47;;;8.20;92.40;;;;;;5059529;28;20185;-87
2021/12/24 05:15:39;;;;;;;6.40;5.30;;;8.30;92.50;;;;;;5075762;28;20819;-87
2021/12/24 05:18:29;;;;;;;5.67;5.17;;;8.40;91.40;;;;;;5051508;28;20231;-87
2021/12/24 05:23:53;;;;;;;5.50;4.93;;;8.30;92.10;;;;;;5005592;28;20232;-88
2021/12/24 05:26:19;;;;;;;5.73;4.60;;;8.30;92.20;;;;;;5041571;28;20688;-89
2021/12/24 05:28:45;;;;;;;6.33;4.63;;;8.50;91.30;;;;;;5046242;28;20197;-87
2021/12/24 05:31:10;;;;;;;7.30;5.97;;;8.60;91.70;;;;;;5029025;28;20220;-87
2021/12/24 05:33:36;;;;;;;9.03;8.20;;;8.60;92.00;;;;;;5039644;28;20280;-86
2021/12/24 05:36:02;;;;;;;5.80;5.17;;;8.40;93.20;;;;;;5045430;28;20254;-87
2021/12/24 05:38:27;;;;;;;9.37;5.37;;;8.50;92.70;;;;;;5031887;28;20215;-87
2021/12/24 05:40:53;;;;;;;6.67;5.23;;;8.50;92.80;;;;;;5041799;28;20767;-87
2021/12/24 05:43:19;;;;;;;7.77;5.30;;;8.40;92.70;;;;;;5045153;28;20201;-87
2021/12/24 05:45:44;;;;;;;6.60;5.10;;;8.40;93.10;;;;;;5025314;28;20200;-87
2021/12/24 05:48:10;;;;;;;6.10;5.10;;;8.40;93.30;;;;;;5040058;28;20223;-87
2021/12/24 05:50:36;;;;;;;6.23;5.37;;;8.30;93.50;;;;;;5040967;28;20418;-87
2021/12/24 05:53:02;;;;;;;8.23;5.30;;;8.30;93.60;;;;;;5047444;28;20227;-87
2021/12/24 05:55:28;;;;;;;5.67;5.07;;;8.30;93.10;;;;;;5024426;28;20275;-87
2021/12/24 05:57:54;;;;;;;6.47;4.67;;;8.60;92.00;;;;;;5050871;28;20233;-87
2021/12/24 06:00:19;;;;;;;5.97;5.37;;;8.50;92.60;;;;;;5046171;28;20652;-87
2021/12/24 06:02:45;;;;;;;4.87;4.30;;;8.60;91.70;;;;;;5030978;28;20711;-87
2021/12/24 06:05:11;;;;;;;5.30;4.63;;;8.50;92.20;;;;;;5027659;28;20189;-86
2021/12/24 06:07:36;;;;;;;5.63;5.03;;;8.30;93.20;;;;;;5049453;28;20217;-87
2021/12/24 06:10:03;;;;;;;6.10;5.43;;;8.30;93.70;;;;;;5044692;28;20267;-87
2021/12/24 06:12:29;;;;;;;9.30;4.93;;;8.50;92.50;;;;;;5048141;28;20208;-87
2021/12/24 06:15:01;;;;;;;6.03;5.47;;;8.50;92.30;;;;;;5048987;28;20758;-87
2021/12/24 06:17:27;;;;;;;5.43;4.90;;;8.60;92.20;;;;;;5049421;28;20277;-86
2021/12/24 06:19:52;;;;;;;6.50;4.90;;;8.60;92.30;;;;;;5043057;28;20212;-87
2021/12/24 06:22:18;;;;;;;6.73;5.30;;;8.50;92.60;;;;;;5056435;28;20610;-87
2021/12/24 06:24:44;;;;;;;6.27;4.77;;;8.50;92.50;;;;;;5047886;28;20553;-87
2021/12/24 06:27:09;;;;;;;5.63;5.13;;;8.60;92.10;;;;;;5047536;28;20310;-87
2021/12/24 06:29:35;;;;;;;5.50;5.00;;;8.60;92.10;;;;;;5046325;28;20196;-87
2021/12/24 06:32:01;;;;;;;7.37;5.80;;;8.50;93.00;;;;;;5036058;28;20264;-87
2021/12/24 06:34:30;;;;;;;5.83;5.00;;;8.40;93.50;;;;;;5051210;28;20196;-87
2021/12/24 06:36:57;;;;;;;6.60;5.43;;;8.30;93.70;;;;;;5040947;28;20216;-88
2021/12/24 06:39:23;;;;;;;5.90;5.07;;;8.40;93.90;;;;;;5055773;28;20243;-87
2021/12/24 06:41:50;;;;;;;5.30;4.77;;;8.60;92.30;;;;;;5059895;28;20388;-87
2021/12/24 06:44:16;;;;;;;6.37;4.90;;;8.60;92.40;;;;;;5045082;28;20196;-87
2021/12/24 06:46:43;;;;;;;6.17;5.00;;;8.60;92.70;;;;;;5054319;28;20217;-87
2021/12/24 06:49:10;;;;;;;6.30;5.30;;;8.70;92.20;;;;;;5059625;28;20656;-87
2021/12/24 06:51:36;;;;;;;5.83;5.27;;;8.50;92.80;;;;;;5059854;28;20262;-88
2021/12/24 06:54:03;;;;;;;5.27;4.77;;;8.60;92.90;;;;;;5044157;28;20615;-88
2021/12/24 06:56:29;;;;;;;8.97;5.03;;;8.70;92.30;;;;;;5060278;28;20196;-87
2021/12/24 06:58:55;;;;;;;8.90;4.93;;;8.50;92.70;;;;;;5037554;28;20359;-87
2021/12/24 07:01:21;;;;;;;5.80;5.20;;;8.60;92.50;;;;;;5048567;28;20216;-88
2021/12/24 07:03:46;;;;;;;6.13;5.03;;;8.60;93.00;;;;;;5028452;28;20196;-87
2021/12/24 07:06:12;;;;;;;5.47;4.90;;;8.60;92.30;;;;;;5043433;28;20216;-87
2021/12/24 07:08:40;;;;;;;5.30;4.80;;;8.70;92.20;;;;;;5043067;28;20239;-87
2021/12/24 07:11:06;;;;;;;5.07;4.47;;;8.70;92.50;;;;;;5050426;28;20211;-87
2021/12/24 07:13:31;;;;;;;4.97;4.43;;;8.60;93.10;;;;;;5067723;28;20200;-87
2021/12/24 07:15:58;;;;;;;6.13;4.77;;;8.70;92.50;;;;;;5046997;28;20195;-87
2021/12/24 07:18:24;;;;;;;7.80;4.90;;;8.70;92.20;;;;;;5046559;28;20298;-87
2021/12/24 07:20:49;;;;;;;5.13;4.73;;;8.60;92.60;;;;;;5067417;28;20176;-88
2021/12/24 07:23:15;;;;;;;7.83;5.07;;;8.50;93.30;;;;;;5067728;28;20180;-87
2021/12/24 07:25:41;;;;;;;6.87;5.30;;;8.40;93.80;;;;;;5059502;28;20212;-88
2021/12/24 07:28:07;;;;;;;6.80;5.57;;;8.50;93.80;;;;;;5080449;28;20216;-87
2021/12/24 07:30:33;;;;;;;5.80;5.30;;;8.60;93.00;;;;;;5053321;28;20184;-88
2021/12/24 07:32:59;;;;;;;6.07;4.70;;;8.60;93.60;;;;;;5043045;28;20180;-88
2021/12/24 07:35:25;;;;;;;6.27;4.70;;;8.70;93.10;;;;;;5063605;28;20192;-88
2021/12/24 07:37:50;;;;;;;5.57;4.60;;;8.70;93.10;;;;;;5044563;28;20277;-88
2021/12/24 07:40:17;;;;;;;5.87;4.93;;;8.70;93.10;;;;;;5064507;28;20282;-88
2021/12/24 07:42:45;;;;;;;6.13;5.13;;;8.60;93.60;;;;;;5057436;28;20189;-88
2021/12/24 07:45:12;;;;;;;6.77;5.13;;;8.50;94.20;;;;;;5044418;28;20291;-88
2021/12/24 07:47:42;;;;;;;5.77;5.20;;;8.50;95.10;;;;;;5063147;28;20235;-89
2021/12/24 07:52:53;;;;;;;5.77;5.17;;;8.20;96.20;;;;;;5052049;28;20199;-88
2021/12/24 07:55:19;;;;;;;6.30;5.20;;;8.20;96.50;;;;;;5066311;28;20180;-89
2021/12/24 07:57:46;;;;;;;5.77;5.00;;;8.40;95.40;;;;;;5064397;28;20215;-89
2021/12/24 08:00:13;;;;;;;5.90;5.40;;;8.40;95.70;;;;;;5057628;28;20248;-88
2021/12/24 08:02:39;;;;;;;6.17;5.57;;;8.40;95.30;;;;;;5051644;28;20283;-88
2021/12/24 08:05:05;;;;;;;7.70;5.57;;;8.40;96.00;;;;;;5065875;28;20198;-89
2021/12/24 08:07:31;;;;;;;5.80;5.27;;;8.30;96.30;;;;;;5046748;28;20228;-88
2021/12/24 08:09:57;;;;;;;5.63;5.07;;;8.30;96.20;;;;;;5062547;28;20316;-88
2021/12/24 08:12:23;;;;;;;4.93;4.43;;;8.40;95.90;;;;;;5047661;28;20668;-88
2021/12/24 08:14:48;;;;;;;8.07;5.03;;;8.40;95.30;;;;;;5064088;28;20244;-87
2021/12/24 08:17:16;;;;;;;5.67;4.80;;;8.40;95.80;;;;;;5072057;28;20207;-88
2021/12/24 08:19:42;;;;;;;5.97;4.90;;;8.30;96.40;;;;;;5057821;28;20195;-88
2021/12/24 08:22:10;;;;;;;5.63;4.97;;;8.40;96.20;;;;;;5061253;28;20221;-89
2021/12/24 08:24:36;;;;;;;7.60;5.10;;;8.40;96.50;;;;;;5035167;28;20204;-89
2021/12/24 08:27:02;;;;;;;6.20;5.10;;;8.50;95.90;;;;;;5060002;28;20212;-89
2021/12/24 08:29:28;;;;;;;5.43;4.93;;;8.50;96.00;;;;;;5066151;28;20246;-89
2021/12/24 08:31:54;;;;;;;5.77;5.13;;;8.50;95.70;;;;;;5043127;28;20220;-87
2021/12/24 08:34:20;;;;;;;7.37;5.53;;;8.60;95.30;;;;;;5051010;28;20188;-90
2021/12/24 08:36:47;;;;;;;5.63;5.03;;;8.70;94.80;;;;;;5054882;28;20211;-89
2021/12/24 08:39:13;;;;;;;5.57;4.60;;;8.70;94.80;;;;;;5044832;28;20196;-90
2021/12/24 08:41:39;;;;;;;5.27;4.77;;;8.70;94.80;;;;;;5047894;28;20196;-89
2021/12/24 08:44:06;;;;;;;6.03;4.83;;;8.70;94.80;;;;;;5061855;28;20200;-87
2021/12/24 08:46:33;;;;;;;6.47;4.70;;;8.80;94.90;;;;;;5054735;28;20208;-88
2021/12/24 08:48:59;;;;;;;4.90;4.50;;;8.70;95.20;;;;;;5036271;28;20656;-88
2021/12/24 08:51:24;;;;;;;6.63;4.80;;;8.70;96.00;;;;;;5061173;28;20207;-88
2021/12/24 08:53:51;;;;;;;5.80;4.23;;;8.60;96.20;;;;;;5037189;28;20197;-87
2021/12/24 08:56:17;;;;;;;5.03;4.53;;;8.70;96.50;;;;;;5054096;28;20216;-88
2021/12/24 08:58:42;;;;;;;5.57;4.70;;;8.50;97.60;;;;;;5053708;28;20212;-88
2021/12/24 09:01:08;;;;;;;5.70;4.90;;;8.50;98.50;;;;;;5052966;28;20220;-88
2021/12/24 09:03:34;;;;;;;6.47;4.27;;;8.40;98.80;;;;;;5040190;28;20239;-87
2021/12/24 09:06:00;;;;;;;5.23;4.70;;;8.30;99.90;;;;;;5050118;28;20185;-89
2021/12/24 09:08:26;;;;;;;5.53;5.03;;;8.40;99.60;;;;;;5059709;28;20267;-89
2021/12/24 09:10:51;;;;;;;6.87;4.90;;;8.40;99.90;;;;;;5041443;28;20213;-88
2021/12/24 09:13:17;;;;;;;6.87;5.40;;;8.30;99.90;;;;;;5052343;28;20197;-87
2021/12/24 09:15:43;;;;;;;10.10;5.27;;;8.20;99.90;;;;;;5048786;28;20177;-87
2021/12/24 09:18:09;;;;;;;9.80;5.90;;;8.00;99.90;;;;;;5051753;28;20308;-88
2021/12/24 09:20:40;;;;;;;6.20;5.10;;;8.00;99.90;;;;;;5048289;28;20212;-86
2021/12/24 09:23:07;;;;;;;5.77;5.03;;;8.00;99.90;;;;;;5054651;28;20232;-87
2021/12/24 09:25:32;;;;;;;6.03;5.43;;;7.90;99.90;;;;;;5039862;28;20195;-86
2021/12/24 09:27:59;;;;;;;6.77;5.43;;;7.90;99.90;;;;;;5054279;28;20221;-86
2021/12/24 09:30:27;;;;;;;6.43;5.80;;;7.90;99.90;;;;;;5038047;28;20725;-87
2021/12/24 09:32:53;;;;;;;6.17;5.03;;;7.80;99.90;;;;;;5051243;28;20628;-87
2021/12/24 09:35:20;;;;;;;6.60;5.90;;;7.80;99.90;;;;;;5031403;28;20202;-87
2021/12/24 09:37:47;;;;;;;8.03;6.30;;;7.80;99.90;;;;;;5052589;28;20238;-86
2021/12/24 09:40:15;;;;;;;7.63;6.10;;;7.60;99.90;;;;;;5064833;28;20539;-86
2021/12/24 09:42:42;;;;;;;8.67;6.70;;;7.60;99.90;;;;;;5075504;28;20243;-87
2021/12/24 09:45:09;;;;;;;6.37;5.60;;;7.60;99.90;;;;;;5056857;28;20568;-87
2021/12/24 09:47:35;;;;;;;7.43;5.90;;;7.50;99.90;;;;;;5045742;28;20223;-87
2021/12/24 09:50:01;;;;;;;7.53;5.50;;;7.60;99.90;;;;;;5052820;28;20254;-88
2021/12/24 09:52:27;;;;;;;6.93;6.23;;;7.60;99.90;;;;;;5029327;28;20254;-87
2021/12/24 09:54:53;;;;;;;6.90;6.17;;;7.60;99.90;;;;;;5043648;28;20189;-88
2021/12/24 09:57:19;;;;;;;8.77;6.13;;;7.60;99.90;;;;;;5049867;28;20208;-88
2021/12/24 09:59:46;;;;;;;6.77;6.17;;;7.60;99.90;;;;;;5033495;28;20291;-88
2021/12/24 10:02:18;;;;;;;7.20;5.80;;;7.60;99.90;;;;;;5047890;28;20287;-86
2021/12/24 10:04:45;;;;;;;7.30;6.10;;;7.50;99.90;;;;;;5048561;28;20220;-87
2021/12/24 10:07:14;;;;;;;6.57;5.53;;;7.60;99.90;;;;;;5042284;28;20279;-87
2021/12/24 10:09:44;;;;;;;8.57;5.93;;;7.50;99.90;;;;;;5054334;28;20204;-87
2021/12/24 10:12:21;;;;;;;6.43;5.70;;;7.60;99.90;;;;;;5030660;28;20213;-87
2021/12/24 10:14:58;;;;;;;6.70;5.93;;;7.60;99.90;;;;;;5046060;28;20192;-87
2021/12/24 10:17:28;;;;;;;8.53;6.27;;;7.50;99.90;;;;;;5045824;28;20568;-87
2021/12/24 10:19:57;;;;;;;6.23;5.63;;;7.40;99.90;;;;;;5045770;28;20188;-86
2021/12/24 10:22:23;;;;;;;7.20;5.90;;;7.60;99.90;;;;;;5042776;28;20216;-87
2021/12/24 10:25:02;;;;;;;7.10;5.67;;;7.60;99.90;;;;;;5057658;28;20279;-87
2021/12/24 10:27:31;;;;;;;7.30;5.60;;;7.60;99.90;;;;;;5038067;28;20223;-88
2021/12/24 10:29:57;;;;;;;7.87;5.57;;;7.70;99.90;;;;;;5058125;28;20822;-88
2021/12/24 10:32:23;;;;;;;6.97;6.13;;;7.80;99.90;;;;;;5041222;28;20220;-89
2021/12/24 10:34:49;;;;;;;5.93;5.33;;;7.80;99.90;;;;;;5052489;28;20555;-88
2021/12/24 10:37:22;;;;;;;6.47;5.40;;;7.80;99.90;;;;;;5052387;28;20209;-88
2021/12/24 10:39:57;;;;;;;6.83;5.30;;;7.80;99.90;;;;;;5055785;28;20203;-89
2021/12/24 10:42:37;;;;;;;6.37;5.63;;;7.70;99.90;;;;;;5037453;28;20276;-88
2021/12/24 10:45:06;;;;;;;7.77;5.67;;;7.60;99.90;;;;;;5055440;28;20282;-88
2021/12/24 10:47:37;;;;;;;6.90;5.73;;;7.70;99.90;;;;;;5051969;28;20687;-87
2021/12/24 10:53:31;;;;;;;7.43;5.93;;;7.80;99.90;;;;;;5067128;28;20225;-88
2021/12/24 10:55:57;;;;;;;5.77;5.27;;;7.80;99.90;;;;;;5061580;28;20286;-86
2021/12/24 10:58:25;;;;;;;7.00;6.30;;;7.80;99.90;;;;;;5060846;28;20888;-88
2021/12/24 11:01:00;;;;;;;5.87;5.27;;;7.80;99.90;;;;;;5066200;28;20725;-87
2021/12/24 11:03:31;;;;;;;6.83;6.13;;;7.80;99.90;;;;;;5066054;28;20290;-88
2021/12/24 11:06:06;;;;;;;6.40;5.57;;;7.80;99.90;;;;;;5065955;28;20271;-88
2021/12/24 11:08:33;;;;;;;8.07;5.40;;;7.80;99.90;;;;;;5046404;28;20215;-88
2021/12/24 11:11:01;;;;;;;6.97;5.43;;;7.90;99.90;;;;;;5068412;28;20212;-88
2021/12/24 11:13:35;;;;;;;6.23;5.63;;;7.80;99.90;;;;;;5068704;28;20196;-87
2021/12/24 11:16:06;;;;;;;6.00;5.40;;;7.80;99.90;;;;;;5065167;28;20190;-87
2021/12/24 11:18:35;;;;;;;7.10;6.00;;;7.90;99.90;;;;;;5064964;28;20204;-87
2021/12/24 11:21:08;;;;;;;7.03;5.90;;;7.80;99.90;;;;;;5067809;28;20644;-89
2021/12/24 11:23:36;;;;;;;5.77;5.17;;;7.80;99.90;;;;;;5064876;28;20200;-88
2021/12/24 11:26:04;;;;;;;8.10;5.80;;;7.90;99.90;;;;;;5070812;28;20207;-89
2021/12/24 11:28:32;;;;;;;6.87;5.43;;;8.00;99.90;;;;;;5039839;28;20312;-88
2021/12/24 11:31:05;;;;;;;5.80;4.93;;;8.00;99.90;;;;;;5067729;28;20226;-88
2021/12/24 11:33:33;;;;;;;5.23;4.70;;;8.00;99.90;;;;;;5048672;28;20283;-87
2021/12/24 11:36:02;;;;;;;6.03;5.20;;;8.00;99.90;;;;;;5070228;28;20182;-88
2021/12/24 11:38:36;;;;;;;10.57;6.77;;;8.00;99.90;;;;;;5069404;28;20212;-87
2021/12/24 11:41:05;;;;;;;14.03;11.27;;;8.10;99.90;;;;;;5067633;28;20196;-87
2021/12/24 11:43:34;;;;;;;5.90;5.40;;;8.10;99.90;;;;;;5063237;28;20203;-87
2021/12/24 11:46:06;;;;;;;5.97;5.37;;;8.10;99.90;;;;;;5064142;28;20219;-88
2021/12/24 11:48:33;;;;;;;7.07;5.43;;;8.10;99.90;;;;;;5061183;28;20233;-88
2021/12/24 11:51:13;;;;;;;5.73;5.23;;;8.10;99.90;;;;;;5055366;28;20243;-87
2021/12/24 11:53:39;;;;;;;6.37;5.30;;;8.00;99.90;;;;;;5076669;28;20184;-88
2021/12/24 11:56:09;;;;;;;7.40;5.23;;;8.10;99.90;;;;;;5050533;28;20219;-87
2021/12/24 11:58:55;;;;;;;5.70;5.20;;;8.10;99.90;;;;;;5073223;28;20284;-86
2021/12/24 12:01:27;;;;;;;7.77;4.73;;;8.10;99.90;;;;;;5063191;28;20279;-87
2021/12/24 12:03:58;;;;;;;7.57;5.90;;;8.00;99.90;;;;;;5062307;28;20377;-87
2021/12/24 12:06:23;;;;;;;6.13;5.53;;;8.00;99.90;;;;;;5032685;28;20180;-86
2021/12/24 12:08:54;;;;;;;6.03;5.43;;;8.00;99.90;;;;;;5062411;28;20249;-87
2021/12/24 12:11:26;;;;;;;5.73;4.77;;;8.00;99.90;;;;;;5065129;28;20682;-87
2021/12/24 12:14:04;;;;;;;7.30;5.07;;;8.00;99.90;;;;;;5049564;28;20199;-87
2021/12/24 12:16:38;;;;;;;5.90;4.93;;;8.10;99.90;;;;;;5061120;28;20222;-87
2021/12/24 12:22:27;;;;;;;5.30;4.80;;;8.00;99.90;;;;;;5065530;28;20488;-88
2021/12/24 12:24:59;;;;;;;5.97;5.07;;;8.10;99.90;;;;;;5065063;28;20215;-88
2021/12/24 12:27:43;;;;;;;5.40;4.90;;;8.10;99.90;;;;;;5048112;28;20287;-88
2021/12/24 12:30:22;;;;;;;5.40;4.90;;;8.10;99.90;;;;;;5069370;28;20187;-87
2021/12/24 12:32:50;;;;;;;6.63;4.40;;;8.20;99.90;;;;;;5072950;28;20698;-88
2021/12/24 12:35:16;;;;;;;5.50;4.53;;;8.20;99.90;;;;;;5063693;28;20196;-88
2021/12/24 12:37:51;;;;;;;7.57;4.20;;;8.30;99.90;;;;;;5064220;28;20255;-88
2021/12/24 12:40:16;;;;;;;5.60;4.53;;;8.30;99.90;;;;;;5068575;28;20277;-88
2021/12/24 12:42:57;;;;;;;7.70;5.43;;;8.30;99.90;;;;;;5065728;28;20208;-88
2021/12/24 12:45:32;;;;;;;4.80;4.40;;;8.30;99.90;;;;;;5064871;28;20192;-89
2021/12/24 12:48:00;;;;;;;7.07;4.40;;;8.40;99.90;;;;;;5063040;28;20237;-88
2021/12/24 12:50:28;;;;;;;5.07;4.67;;;8.30;99.90;;;;;;5068658;28;20198;-88
2021/12/24 12:53:29;;;;;;;5.40;4.60;;;8.30;99.90;;;;;;5064992;28;20527;-88
2021/12/24 12:56:13;;;;;;;6.00;5.30;;;8.30;99.90;;;;;;5063780;28;20184;-88
2021/12/24 12:58:42;;;;;;;5.43;4.93;;;8.40;99.90;;;;;;5065656;28;20214;-88
2021/12/24 13:01:17;;;;;;;5.33;4.83;;;8.30;99.90;;;;;;5047572;28;20258;-88
2021/12/24 13:03:55;;;;;;;6.37;5.10;;;8.40;99.90;;;;;;5050735;28;20258;-88
2021/12/24 13:06:42;;;;;;;5.40;4.90;;;8.40;99.90;;;;;;5068541;28;20191;-88
2021/12/24 13:09:14;;;;;;;7.33;5.50;;;8.40;99.90;;;;;;5041460;28;20195;-88
2021/12/24 13:11:44;;;;;;;6.07;5.03;;;8.40;99.90;;;;;;5064305;28;20229;-88
2021/12/24 13:14:11;;;;;;;5.87;4.83;;;8.30;99.90;;;;;;5032913;28;20279;-88
2021/12/24 13:16:53;;;;;;;5.17;4.67;;;8.50;99.90;;;;;;5066367;28;20184;-88
2021/12/24 13:19:30;;;;;;;5.93;4.93;;;8.50;99.90;;;;;;5061102;28;20199;-88
2021/12/24 13:22:28;;;;;;;6.47;5.07;;;8.40;99.90;;;;;;5061954;28;20190;-88
2021/12/24 13:24:56;;;;;;;6.40;4.83;;;8.50;99.90;;;;;;5045286;28;20196;-87
2021/12/24 13:27:25;;;;;;;5.50;4.70;;;8.60;99.90;;;;;;5051862;28;20204;-87
2021/12/24 13:30:16;;;;;;;7.13;5.13;;;8.60;99.90;;;;;;5068144;28;20662;-87
2021/12/24 13:33:00;;;;;;;5.60;5.00;;;8.70;99.90;;;;;;5069030;28;20680;-87
2021/12/24 13:35:29;;;;;;;4.73;4.33;;;8.60;99.90;;;;;;5064123;28;20187;-88
2021/12/24 13:37:56;;;;;;;5.40;4.90;;;8.70;99.90;;;;;;5065863;28;20195;-87
2021/12/24 13:40:31;;;;;;;5.73;4.80;;;8.70;99.90;;;;;;5042680;28;20187;-87
2021/12/24 13:43:12;;;;;;;5.40;4.90;;;8.80;99.90;;;;;;5064912;28;20179;-87
2021/12/24 13:45:39;;;;;;;4.97;4.47;;;8.70;99.90;;;;;;5065614;28;20708;-87
2021/12/24 13:48:14;;;;;;;4.80;4.30;;;8.70;99.90;;;;;;5065545;28;20211;-87
2021/12/24 13:56:45;;;;;;;5.53;4.93;;;8.90;99.90;;;;;;5062625;28;20241;-87
2021/12/24 13:59:14;;;;;;;5.07;4.40;;;8.90;99.90;;;;;;5062393;28;20192;-87
2021/12/24 14:01:41;;;;;;;5.40;4.60;;;8.80;99.90;;;;;;5042942;28;20208;-87
2021/12/24 14:04:08;;;;;;;5.27;4.27;;;8.70;99.90;;;;;;5061767;28;20192;-87
2021/12/24 14:06:38;;;;;;;5.27;4.77;;;8.70;99.90;;;;;;5070903;28;20255;-87
2021/12/24 14:09:14;;;;;;;5.03;4.53;;;8.80;99.90;;;;;;5078702;28;20184;-87
2021/12/24 14:11:41;;;;;;;5.97;4.90;;;8.90;99.90;;;;;;5074842;28;20199;-87
2021/12/24 14:14:13;;;;;;;5.50;5.00;;;8.90;99.90;;;;;;5071510;28;20200;-87
2021/12/24 14:17:46;;;;;;;5.00;4.50;;;8.80;99.90;;;;;;5070324;28;20222;-88
2021/12/24 14:19:37;;;;;;;5.73;5.03;;;8.80;99.90;;;;;;5059142;28;20712;-88
2021/12/24 14:22:10;;;;;;;5.47;4.33;;;8.80;99.90;;;;;;5057445;28;20246;-90
2021/12/24 14:24:36;;;;;;;6.43;5.73;;;8.80;99.90;;;;;;5061843;28;20200;-88
2021/12/24 14:27:08;;;;;;;5.77;5.00;;;8.80;99.90;;;;;;5057868;28;20208;-89
2021/12/24 14:29:40;;;;;;;5.87;4.97;;;8.80;99.90;;;;;;5041898;28;20195;-89
2021/12/24 14:32:08;;;;;;;6.20;5.60;;;8.80;99.90;;;;;;5059851;28;20208;-88
2021/12/24 14:34:38;;;;;;;6.50;5.20;;;8.80;99.90;;;;;;5045052;28;20647;-88
2021/12/24 14:37:23;;;;;;;7.70;6.13;;;8.80;99.90;;;;;;5062913;28;20219;-88
2021/12/24 14:39:54;;;;;;;5.83;5.20;;;8.80;99.90;;;;;;5046074;28;20180;-88
2021/12/24 14:42:24;;;;;;;6.33;5.07;;;8.80;99.90;;;;;;5060565;28;20195;-89
2021/12/24 14:45:14;;;;;;;5.07;4.57;;;8.70;99.90;;;;;;5062721;28;20211;-88
2021/12/24 14:47:40;;;;;;;5.90;5.30;;;8.70;99.90;;;;;;5045455;28;20764;-88
2021/12/24 14:50:12;;;;;;;7.37;5.10;;;8.70;99.90;;;;;;5065429;28;20227;-88
2021/12/24 14:52:39;;;;;;;5.30;4.80;;;8.60;99.90;;;;;;5061352;28;20682;-88
2021/12/24 14:55:14;;;;;;;4.93;4.53;;;8.70;99.90;;;;;;5041338;28;20284;-88
2021/12/24 14:57:52;;;;;;;7.43;5.10;;;8.70;99.90;;;;;;5061314;28;20203;-88
2021/12/24 15:00:30;;;;;;;5.50;5.00;;;8.70;99.90;;;;;;5060393;28;20211;-88